createdAt,value
2023-05-19T00:01:46.593Z,5.94
2023-05-19T00:02:11.656Z,6.1
2023-05-19T00:07:30.523Z,5.72
2023-05-19T00:18:09.179Z,5.57
2023-05-19T00:23:28.194Z,5.69
2023-05-19T00:28:47.508Z,5.84
2023-05-19T00:34:06.825Z,5.81
2023-05-19T00:44:46.238Z,5.62
2023-05-19T00:50:05.334Z,5.62
2023-05-19T01:00:43.757Z,5.55
2023-05-19T01:06:03.651Z,5.38
2023-05-19T01:11:23.156Z,5.54
2023-05-19T01:16:43.434Z,5.37
2023-05-19T01:22:02.155Z,5.23
2023-05-19T01:28:36.294Z,5.05
2023-05-19T01:32:42.197Z,4.85
2023-05-19T01:43:20.754Z,4.58
2023-05-19T01:48:39.699Z,4.54
2023-05-19T01:53:58.782Z,4.52
2023-05-19T01:59:18.552Z,4.44
2023-05-19T02:04:38.182Z,4.31
2023-05-19T02:09:57.779Z,4.23
2023-05-19T02:15:16.892Z,4.23
2023-05-19T02:25:55.468Z,4.38
2023-05-19T02:31:14.169Z,4.52
2023-05-19T02:41:52.715Z,4.51
2023-05-19T02:47:12.056Z,4.54
2023-05-19T02:52:30.069Z,4.62
2023-05-19T02:57:49.120Z,4.61
2023-05-19T03:08:27.652Z,4.54
2023-05-19T03:13:47.090Z,4.57
2023-05-19T03:24:25.260Z,4.54
2023-05-19T03:29:45.006Z,4.48
2023-05-19T03:35:04.363Z,4.48
2023-05-19T03:45:42.536Z,4.58
2023-05-19T03:51:01.292Z,4.61
2023-05-19T04:01:41.119Z,4.55
2023-05-19T04:07:01.370Z,4.57
2023-05-19T04:12:19.284Z,4.64
2023-05-19T04:17:39.040Z,4.69
2023-05-19T04:22:57.808Z,4.71
2023-05-19T04:28:16.780Z,4.79
2023-05-19T04:33:36.419Z,4.92
2023-05-19T04:44:15.762Z,5.15
2023-05-19T04:49:34.980Z,5.36
2023-05-19T04:54:54.613Z,5.47
2023-05-19T05:00:14.859Z,5.65
2023-05-19T05:05:33.945Z,5.82
2023-05-19T05:10:53.157Z,5.99
2023-05-19T05:16:12.778Z,6.19
2023-05-19T05:26:51.718Z,6.49
2023-05-19T05:32:10.778Z,6.8
2023-05-19T05:42:49.064Z,7.76
2023-05-19T05:48:08.024Z,8.32
2023-05-19T05:53:27.128Z,8.91
2023-05-19T05:58:46.596Z,9.58
2023-05-19T06:09:24.415Z,10.94
2023-05-19T06:14:43.361Z,11.3
2023-05-19T06:26:36.487Z,11.65
2023-05-19T06:30:41.829Z,11.79
2023-05-19T06:41:20.470Z,12.7
2023-05-19T06:46:39.373Z,12.73
2023-05-19T06:51:58.860Z,12.68
2023-05-19T06:57:17.618Z,13.02
2023-05-19T07:11:10.358Z,14.3
2023-05-19T07:13:15.329Z,14.32
2023-05-19T07:23:53.498Z,14.1
2023-05-19T07:29:12.850Z,14.01
2023-05-19T07:34:32.540Z,14.41
2023-05-19T07:39:51.211Z,14.83
2023-05-19T07:50:29.399Z,15.12
2023-05-19T07:55:48.559Z,14.63
2023-05-19T08:06:26.978Z,15.31
2023-05-19T08:11:46.244Z,15.42
2023-05-19T08:17:04.945Z,15.85
2023-05-19T08:22:23.985Z,16.08
2023-05-19T08:33:01.996Z,16.01
2023-05-19T08:38:20.728Z,15.6
2023-05-19T08:48:58.687Z,16.79
2023-05-19T08:54:17.917Z,17.12
2023-05-19T08:59:35.632Z,16.78
2023-05-19T09:04:54.638Z,16.31
2023-05-19T09:15:33.273Z,15.58
2023-05-19T09:20:52.534Z,15.86
2023-05-19T09:31:30.438Z,15.7
2023-05-19T09:36:49.184Z,15.89
2023-05-19T09:42:08.106Z,15.83
2023-05-19T09:47:27.560Z,15.62
2023-05-19T09:52:47.175Z,15.58
2023-05-19T09:58:06.725Z,15.5
2023-05-19T10:03:34.560Z,15.65
2023-05-19T10:08:45.824Z,15.94
2023-05-19T10:14:05.073Z,16.1
2023-05-19T10:24:43.461Z,15.9
2023-05-19T10:30:02.718Z,15.91
2023-05-19T10:40:39.963Z,16.04
2023-05-19T10:51:18.081Z,15.99
2023-05-19T10:56:36.944Z,15.89
2023-05-19T11:07:14.455Z,15.59
2023-05-19T11:12:33.304Z,15.43
2023-05-19T11:23:11.856Z,15.38
2023-05-19T11:33:49.542Z,15.56
2023-05-19T11:39:08.464Z,15.48
2023-05-19T11:49:46.722Z,15.7
2023-05-19T11:55:06.227Z,15.94
2023-05-19T12:00:25.131Z,16.27
2023-05-19T12:05:44.224Z,16.2
2023-05-19T12:16:22.010Z,16.58
2023-05-19T12:21:41.589Z,16.78
2023-05-19T12:32:20.185Z,16.78
2023-05-19T12:37:40.025Z,16.73
2023-05-19T12:42:57.878Z,16.71
2023-05-19T12:48:17.090Z,16.89
2023-05-19T12:53:36.348Z,16.65
2023-05-19T12:58:55.792Z,16.29
2023-05-19T13:04:15.006Z,16.4
2023-05-19T13:14:54.817Z,16.71
2023-05-19T13:20:21.880Z,16.98
2023-05-19T13:25:31.976Z,17.31
2023-05-19T13:30:50.757Z,17.51
2023-05-19T13:41:28.864Z,17.87
2023-05-19T13:46:49.840Z,18.08
2023-05-19T13:57:26.843Z,18.42
2023-05-19T14:02:54.704Z,18.74
2023-05-19T14:13:30.690Z,19.65
2023-05-19T14:18:42.183Z,19.9
2023-05-19T14:24:01.737Z,19.76
2023-05-19T14:29:21.085Z,19.44
2023-05-19T14:34:40.722Z,19.18
2023-05-19T14:39:59.991Z,19.07
2023-05-19T14:45:18.738Z,19.08
2023-05-19T14:55:57.305Z,18.87
2023-05-19T15:01:15.999Z,18.73
2023-05-19T15:06:35.666Z,18.67
2023-05-19T15:11:54.729Z,18.78
2023-05-19T15:17:14.304Z,19.2
2023-05-19T15:22:33.902Z,19.68
2023-05-19T15:27:53.138Z,19.52
2023-05-19T15:38:31.475Z,19.39
2023-05-19T15:43:50.274Z,19.54
2023-05-19T15:54:28.452Z,19.28
2023-05-19T15:59:47.493Z,19.12
2023-05-19T16:05:06.640Z,19.1
2023-05-19T16:10:26.056Z,19.08
2023-05-19T16:21:04.583Z,19.07
2023-05-19T16:26:23.458Z,19.04
2023-05-19T16:37:01.928Z,18.87
2023-05-19T16:42:20.762Z,18.86
2023-05-19T16:47:39.568Z,19.12
2023-05-19T16:52:58.677Z,19.58
2023-05-19T16:58:17.561Z,19.45
2023-05-19T17:03:36.693Z,19.18
2023-05-19T17:14:15.768Z,19.04
2023-05-19T17:19:34.600Z,18.94
2023-05-19T17:24:53.445Z,18.73
2023-05-19T17:30:12.173Z,18.62
2023-05-19T17:35:31.902Z,18.54
2023-05-19T17:46:09.948Z,18.28
2023-05-19T17:46:35.001Z,18.42
2023-05-19T17:51:53.694Z,18.16
2023-05-19T17:57:12.909Z,18.08
2023-05-19T18:02:32.429Z,17.89
2023-05-19T18:08:01.136Z,17.84
2023-05-19T18:18:29.539Z,17.7
2023-05-19T18:29:07.634Z,17.44
2023-05-19T18:34:26.649Z,17.29
2023-05-19T18:39:45.415Z,17.2
2023-05-19T18:45:04.419Z,17.07
2023-05-19T18:50:23.441Z,16.99
2023-05-19T18:55:42.228Z,16.9
2023-05-19T19:01:01.443Z,16.79
2023-05-19T19:11:40.050Z,16.62
2023-05-19T19:16:59.742Z,16.58
2023-05-19T19:27:38.119Z,16.45
2023-05-19T19:32:57.202Z,16.34
2023-05-19T19:38:16.598Z,16.2
2023-05-19T19:43:35.468Z,16.12
2023-05-19T19:54:14.268Z,15.86
2023-05-19T19:59:33.681Z,15.7
2023-05-19T20:10:11.236Z,15.49
2023-05-19T20:15:40.772Z,15.45
2023-05-19T20:20:49.751Z,15.39
2023-05-19T20:26:12.918Z,15.24
2023-05-19T20:36:47.908Z,15.08
2023-05-19T20:42:07.159Z,15.01
2023-05-19T20:52:45.370Z,14.88
2023-05-19T20:58:04.797Z,14.91
2023-05-19T21:03:23.991Z,14.9
2023-05-19T21:08:42.957Z,14.85
2023-05-19T21:14:01.827Z,14.84
2023-05-19T21:19:20.988Z,14.87
2023-05-19T21:24:50.266Z,14.87
2023-05-19T21:35:18.257Z,14.77
2023-05-19T21:40:37.137Z,14.78
2023-05-19T21:51:15.277Z,14.76
2023-05-19T21:56:34.490Z,14.8
2023-05-19T22:01:53.989Z,14.85
2023-05-19T22:07:13.063Z,14.81
2023-05-19T22:17:52.204Z,14.59
2023-05-19T22:23:11.336Z,14.32
2023-05-19T22:33:49.974Z,13.81
2023-05-19T22:39:09.593Z,13.6
2023-05-19T22:44:29.115Z,13.43
2023-05-19T22:49:49.334Z,13.27
2023-05-19T22:55:08.768Z,13.11
2023-05-19T23:00:28.005Z,13.13
2023-05-19T23:05:47.676Z,13.19
2023-05-19T23:16:25.851Z,12.95
2023-05-19T23:21:45.454Z,12.79
2023-05-19T23:27:04.515Z,12.53
2023-05-19T23:32:24.174Z,12.27
2023-05-19T23:43:02.330Z,11.91
2023-05-19T23:53:40.471Z,11.6
2023-05-19T23:58:59.537Z,11.43
